createdAt,value
2018-11-25T10:58:26.337Z,98.99
2018-11-25T11:00:55.655Z,98.95
2018-11-25T11:03:24.685Z,99.17
2018-11-25T11:05:53.752Z,99.29
2018-11-25T11:08:23.004Z,98.96
2018-11-25T11:10:51.998Z,99.29
2018-11-25T11:13:21.872Z,98.80
2018-11-25T11:15:51.327Z,99.01
2018-11-25T11:18:20.891Z,98.87
2018-11-25T11:20:50.179Z,98.97
2018-11-25T11:23:19.901Z,99.18
2018-11-25T11:25:49.193Z,98.56
2018-11-25T11:28:18.762Z,98.67
2018-11-25T11:30:48.066Z,98.77
2018-11-25T11:33:17.540Z,99.17
2018-11-25T11:35:47.157Z,98.62
2018-11-25T11:38:16.448Z,99.17
2018-11-25T11:40:45.922Z,99.20
2018-11-25T11:43:14.972Z,99.22
2018-11-25T11:45:44.425Z,99.35
2018-11-25T11:48:14.046Z,99.05
2018-11-25T11:50:43.305Z,98.99
2018-11-25T11:53:13.082Z,98.35
2018-11-25T11:55:42.353Z,99.06
2018-11-25T11:58:12.605Z,98.70
2018-11-25T12:00:42.066Z,99.15
2018-11-25T12:03:11.370Z,98.87
2018-11-25T12:05:40.977Z,98.87
2018-11-25T12:08:09.930Z,99.14
2018-11-25T12:10:39.202Z,99.42
2018-11-25T12:13:08.196Z,99.35
2018-11-25T12:15:37.461Z,99.52
2018-11-25T12:18:06.458Z,99.06
2018-11-25T12:20:36.226Z,99.43
2018-11-25T12:23:04.964Z,99.18
2018-11-25T12:25:34.411Z,98.86
2018-11-25T12:28:03.997Z,98.98
2018-11-25T12:30:32.934Z,98.62
2018-11-25T12:33:02.785Z,98.86
2018-11-25T12:35:32.230Z,98.90
2018-11-25T12:38:01.793Z,98.55
2018-11-25T12:40:31.245Z,98.65
2018-11-25T12:43:00.526Z,98.48
2018-11-25T12:45:30.102Z,98.66
2018-11-25T12:47:59.661Z,98.97
2018-11-25T12:50:29.125Z,98.86
2018-11-25T12:52:59.506Z,99.35
2018-11-25T12:55:27.414Z,99.38
2018-11-25T12:57:56.698Z,99.62
2018-11-25T13:00:25.855Z,99.57
2018-11-25T13:02:55.121Z,99.26
2018-11-25T13:05:24.392Z,99.28
2018-11-25T13:07:54.131Z,99.38
2018-11-25T13:10:23.241Z,99.19
2018-11-25T13:12:52.594Z,99.06
2018-11-25T13:15:22.208Z,99.19
2018-11-25T13:17:51.174Z,99.40
2018-11-25T13:20:20.278Z,99.18
2018-11-25T13:22:49.548Z,99.44
2018-11-25T13:25:18.797Z,99.34
2018-11-25T13:27:48.147Z,99.69
2018-11-25T13:30:17.593Z,99.47
2018-11-25T13:32:47.167Z,99.59
2018-11-25T13:35:16.284Z,99.25
2018-11-25T13:37:45.560Z,99.45
2018-11-25T13:40:15.104Z,99.51
2018-11-25T13:42:43.816Z,99.53
2018-11-25T13:45:13.150Z,99.60
2018-11-25T13:47:42.423Z,99.81
2018-11-25T13:50:11.640Z,99.31
2018-11-25T13:52:41.063Z,99.32
2018-11-25T13:55:10.646Z,99.34
2018-11-25T13:57:39.937Z,99.54
2018-11-25T14:00:08.923Z,99.76
2018-11-25T14:02:38.270Z,100.00
2018-11-25T14:05:07.174Z,99.80
2018-11-25T14:07:36.474Z,99.94
2018-11-25T14:10:05.766Z,99.92
2018-11-25T14:12:35.454Z,100.00
2018-11-25T14:15:04.647Z,99.87
2018-11-25T14:17:34.230Z,99.68
2018-11-25T14:20:03.186Z,100.00
2018-11-25T14:22:32.481Z,100.00
2018-11-25T14:25:01.789Z,100.00
2018-11-25T14:27:31.437Z,100.00
2018-11-25T14:30:00.163Z,100.00
2018-11-25T14:32:29.290Z,100.00
2018-11-25T14:34:58.794Z,100.00
2018-11-25T14:37:28.354Z,100.00
2018-11-25T14:39:58.802Z,100.00
2018-11-25T14:42:28.402Z,100.00
2018-11-25T14:44:58.858Z,100.00
2018-11-25T14:47:28.450Z,100.00
2018-11-25T14:49:58.721Z,100.00
2018-11-25T14:52:28.019Z,100.00
2018-11-25T14:54:58.767Z,100.00
2018-11-25T14:57:28.069Z,100.00
2018-11-25T14:59:58.799Z,100.00
2018-11-25T15:02:28.418Z,100.00
2018-11-25T15:04:58.461Z,100.00
2018-11-25T15:07:27.942Z,100.00
2018-11-25T15:09:58.781Z,100.00
2018-11-25T15:12:28.569Z,100.00
2018-11-25T15:14:58.842Z,100.00
2018-11-25T15:17:28.170Z,100.00
2018-11-25T15:19:58.951Z,100.00
2018-11-25T15:22:28.543Z,100.00
2018-11-25T15:24:58.486Z,100.00
2018-11-25T15:27:27.786Z,100.00
2018-11-25T15:29:58.519Z,100.00
2018-11-25T15:32:27.810Z,100.00
2018-11-25T15:34:57.134Z,100.00
2018-11-25T15:37:26.520Z,100.00
2018-11-25T15:39:56.011Z,100.00
2018-11-25T15:42:25.720Z,100.00
2018-11-25T15:44:54.994Z,100.00
2018-11-25T15:47:24.526Z,100.00
2018-11-25T15:49:53.845Z,100.00
2018-11-25T15:52:23.660Z,100.00
2018-11-25T15:54:52.985Z,100.00
2018-11-25T15:57:22.610Z,100.00
2018-11-25T15:59:52.767Z,100.00
2018-11-25T16:02:21.703Z,100.00
2018-11-25T16:04:51.210Z,100.00
2018-11-25T16:07:20.408Z,100.00
2018-11-25T16:09:49.902Z,100.00
2018-11-25T16:12:19.709Z,100.00
2018-11-25T16:14:49.006Z,100.00
2018-11-25T16:17:18.645Z,100.00
2018-11-25T16:19:47.949Z,100.00
2018-11-25T16:22:17.538Z,100.00
2018-11-25T16:24:47.086Z,100.00
2018-11-25T16:27:16.756Z,100.00
2018-11-25T16:29:46.814Z,100.00
2018-11-25T16:32:16.445Z,100.00
2018-11-25T16:34:45.949Z,100.00
2018-11-25T16:37:15.774Z,100.00
2018-11-25T16:39:45.073Z,100.00
2018-11-25T16:42:14.644Z,100.00
2018-11-25T16:44:43.960Z,100.00
2018-11-25T16:47:13.459Z,100.00
2018-11-25T16:49:42.901Z,100.00
2018-11-25T16:52:12.214Z,100.00
2018-11-25T16:54:41.742Z,100.00
2018-11-25T16:57:11.049Z,100.00
2018-11-25T16:59:40.650Z,100.00
2018-11-25T17:02:09.690Z,100.00
2018-11-25T17:04:39.007Z,100.00
2018-11-25T17:07:08.375Z,100.00
2018-11-25T17:09:37.879Z,100.00
2018-11-25T17:12:08.826Z,100.00
2018-11-25T17:14:38.203Z,100.00
2018-11-25T17:17:07.970Z,100.00
2018-11-25T17:19:37.756Z,100.00
2018-11-25T17:22:07.253Z,100.00
2018-11-25T17:24:36.808Z,100.00
2018-11-25T17:27:05.494Z,100.00
2018-11-25T17:29:34.969Z,100.00
2018-11-25T17:32:03.965Z,100.00
2018-11-25T17:34:33.368Z,100.00
2018-11-25T17:37:02.991Z,100.00
2018-11-25T17:39:32.766Z,100.00
2018-11-25T17:42:02.129Z,100.00
2018-11-25T17:44:31.857Z,100.00
2018-11-25T17:47:01.162Z,100.00
2018-11-25T17:49:30.462Z,100.00
2018-11-25T17:51:59.714Z,100.00
2018-11-25T17:54:29.031Z,100.00
2018-11-25T17:56:59.254Z,100.00
2018-11-25T17:59:29.024Z,100.00
2018-11-25T18:01:59.225Z,100.00
2018-11-25T18:04:28.526Z,100.00
2018-11-25T18:06:57.958Z,100.00
2018-11-25T18:09:26.723Z,100.00
2018-11-25T18:11:55.701Z,100.00
2018-11-25T18:14:25.030Z,100.00
2018-11-25T18:16:54.346Z,100.00
2018-11-25T18:19:23.773Z,100.00
2018-11-25T18:21:53.051Z,100.00
2018-11-25T18:24:22.573Z,100.00
2018-11-25T18:26:51.975Z,100.00
2018-11-25T18:29:21.278Z,100.00
2018-11-25T18:31:50.593Z,100.00
2018-11-25T18:34:20.129Z,100.00
2018-11-25T18:36:49.439Z,100.00
2018-11-25T18:39:18.995Z,100.00
2018-11-25T18:41:48.305Z,100.00
2018-11-25T18:44:17.380Z,100.00
2018-11-25T18:46:48.380Z,100.00
2018-11-25T18:49:15.844Z,100.00
2018-11-25T18:51:45.161Z,100.00
2018-11-25T18:54:14.467Z,100.00
2018-11-25T18:56:45.068Z,100.00
2018-11-25T18:59:14.837Z,100.00
2018-11-25T19:01:44.261Z,100.00
2018-11-25T19:04:13.834Z,100.00
2018-11-25T19:06:43.261Z,100.00
2018-11-25T19:09:12.533Z,100.00
2018-11-25T19:11:42.082Z,100.00
2018-11-25T19:14:11.650Z,100.00
2018-11-25T19:16:40.670Z,100.00
2018-11-25T19:19:10.251Z,100.00
2018-11-25T19:21:39.710Z,100.00
2018-11-25T19:24:09.341Z,100.00
2018-11-25T19:26:39.133Z,100.00
2018-11-25T19:29:08.685Z,100.00
2018-11-25T19:31:38.281Z,100.00
2018-11-25T19:34:07.562Z,100.00
2018-11-25T19:36:37.122Z,100.00
2018-11-25T19:39:05.897Z,100.00
2018-11-25T19:41:35.190Z,100.00
2018-11-25T19:44:04.200Z,100.00
2018-11-25T19:46:33.495Z,100.00
2018-11-25T19:49:04.238Z,100.00
2018-11-25T19:51:33.518Z,100.00
2018-11-25T19:54:03.382Z,100.00
2018-11-25T19:56:32.509Z,100.00
2018-11-25T19:59:01.790Z,100.00
2018-11-25T20:01:31.226Z,100.00
2018-11-25T20:04:00.798Z,100.00
2018-11-25T20:06:30.182Z,100.00
2018-11-25T20:08:59.894Z,100.00
2018-11-25T20:11:28.754Z,100.00
2018-11-25T20:13:59.350Z,100.00
2018-11-25T20:16:28.202Z,100.00
2018-11-25T20:18:57.490Z,100.00
2018-11-25T20:21:26.542Z,100.00
2018-11-25T20:23:55.835Z,100.00
2018-11-25T20:26:24.862Z,100.00
2018-11-25T20:28:53.966Z,100.00
2018-11-25T20:31:23.230Z,100.00
2018-11-25T20:33:52.599Z,100.00
2018-11-25T20:36:21.326Z,100.00
2018-11-25T20:41:50.085Z,100.00
2018-11-25T20:44:19.438Z,100.00
2018-11-25T20:47:07.141Z,100.00
2018-11-25T20:49:36.417Z,100.00
2018-11-25T20:52:05.926Z,100.00
2018-11-25T20:54:35.324Z,100.00
2018-11-25T20:57:04.440Z,100.00
2018-11-25T20:59:33.819Z,100.00
2018-11-25T21:02:03.042Z,100.00
2018-11-25T21:04:32.451Z,100.00
2018-11-25T21:07:01.723Z,100.00
2018-11-25T21:09:31.326Z,100.00
2018-11-25T21:12:00.701Z,100.00
2018-11-25T21:14:30.386Z,100.00
2018-11-25T21:16:59.812Z,100.00
2018-11-25T21:19:29.330Z,100.00
2018-11-25T21:21:59.748Z,100.00
2018-11-25T21:24:29.548Z,100.00
2018-11-25T21:26:59.729Z,100.00
2018-11-25T21:29:29.340Z,100.00
2018-11-25T21:31:59.768Z,100.00
2018-11-25T21:34:29.897Z,100.00
2018-11-25T21:36:59.757Z,100.00
2018-11-25T21:39:29.038Z,100.00
2018-11-25T21:41:59.894Z,100.00
2018-11-25T21:44:29.462Z,100.00
2018-11-25T21:46:59.778Z,100.00
2018-11-25T21:49:29.376Z,100.00
2018-11-25T21:51:59.758Z,100.00
2018-11-25T21:54:28.762Z,100.00
2018-11-25T21:56:59.551Z,100.00
2018-11-25T21:59:28.851Z,100.00
2018-11-25T22:01:59.482Z,100.00
2018-11-25T22:04:28.829Z,100.00
2018-11-25T22:06:59.871Z,100.00
2018-11-25T22:09:29.151Z,100.00
2018-11-25T22:11:59.867Z,100.00
2018-11-25T22:14:29.520Z,100.00
2018-11-25T22:16:59.883Z,100.00
2018-11-25T22:19:29.445Z,100.00
2018-11-25T22:21:59.810Z,100.00
2018-11-25T22:24:29.103Z,100.00
2018-11-25T22:27:00.030Z,100.00
2018-11-25T22:29:29.606Z,100.00
2018-11-25T22:31:59.870Z,100.00
2018-11-25T22:34:29.434Z,100.00
2018-11-25T22:36:59.882Z,100.00
2018-11-25T22:39:29.696Z,100.00
2018-11-25T22:41:59.967Z,100.00
2018-11-25T22:44:29.530Z,100.00
2018-11-25T22:46:59.861Z,100.00
2018-11-25T22:49:28.798Z,100.00
2018-11-25T22:51:58.083Z,100.00
2018-11-25T22:54:27.669Z,100.00
2018-11-25T22:56:56.952Z,100.00
2018-11-25T22:59:26.235Z,100.00
2018-11-25T23:01:55.809Z,100.00
2018-11-25T23:07:31.166Z,100.00
2018-11-25T23:10:00.477Z,100.00
2018-11-25T23:12:30.109Z,100.00
2018-11-25T23:15:00.375Z,100.00
2018-11-25T23:17:29.967Z,100.00
2018-11-25T23:20:00.211Z,100.00
2018-11-25T23:22:29.831Z,100.00
2018-11-25T23:25:00.355Z,100.00
2018-11-25T23:27:29.686Z,100.00
2018-11-25T23:29:59.017Z,100.00
2018-11-25T23:32:29.638Z,100.00
2018-11-25T23:35:00.435Z,100.00
2018-11-25T23:37:29.993Z,100.00
2018-11-25T23:39:59.275Z,100.00
2018-11-25T23:42:28.872Z,100.00
2018-11-25T23:44:58.334Z,100.00
2018-11-25T23:47:27.915Z,100.00
2018-11-25T23:49:57.233Z,100.00
2018-11-25T23:52:26.491Z,100.00
2018-11-25T23:54:56.059Z,100.00
2018-11-25T23:57:25.345Z,100.00
2018-11-25T23:59:54.927Z,100.00
